Skip Navigation LinksHome page > Weather > Current weather Skip Navigation Links

Current Weather

New Tokyo International (Narita), Tokyo

For information only: do not use for flight planning or navigation.
Latest weather
Observation time Wednesday, January 18, 2017 10:30 PM JST
Local time Wednesday, January 18, 2017 10:58 PM JST
Flight conditions Low Instrument Meteorological Conditions
Winds
Wind direction South-Southeast (160°)
Wind speed 3 mph
Visibility 6.2 mi.
Sky condition
Ceiling 0 ft. broken clouds
Cloud layer broken clouds 0 ft.
Cloud layer few clouds 3,000 ft.
Temperature 36°F
Dewpoint 32°F
Altimeter 30.15 in.Hg
Derived measurements
Relative humidity 87%
Wind chill 33°F
Density altitude -1609 ft.
Remarks
No significant changes expected in the next two hours.
METAR RJAA 181330Z 16003KT 9999 FEW030 BKN/// 02/M00 Q1021 NOSIG RMK 1CU030 A3016

Settings

Location code

InnerDrive.Weather 4.0.6144.1 Release CLR 4.0.30319.34209
Copyright ©2015 Inner Drive Technology. All rights reserved. Portions Copyright ©1986-2015 David Braverman.

Find weather

Site navigation


Skip Navigation Links

Place info

Page info

PayPal - The safer, easier way to pay online!

Return home.

Copyright ©2017 Inner Drive Technology. Purveyors of fine, hand-crafted computer software. Page printed 2017-01-18T13:58:02 UTC.